createdAt,value
2018-06-17T00:00:17.124Z,1008.27
2018-06-17T00:01:17.147Z,1008.29
2018-06-17T00:02:17.170Z,1008.29
2018-06-17T00:03:17.190Z,1008.31
2018-06-17T00:04:17.214Z,1008.33
2018-06-17T00:05:17.236Z,1008.31
2018-06-17T00:06:17.259Z,1008.33
2018-06-17T00:07:17.279Z,1008.30
2018-06-17T00:08:17.300Z,1008.31
2018-06-17T00:09:17.324Z,1008.32
2018-06-17T00:10:17.351Z,1008.26
2018-06-17T00:11:17.369Z,1008.29
2018-06-17T00:12:17.395Z,1008.28
2018-06-17T00:13:17.413Z,1008.25
2018-06-17T00:14:17.439Z,1008.29
2018-06-17T00:15:17.461Z,1008.26
2018-06-17T00:16:17.479Z,1008.28
2018-06-17T00:17:17.505Z,1008.28
2018-06-17T00:18:17.526Z,1008.30
2018-06-17T00:19:17.552Z,1008.25
2018-06-17T00:20:17.569Z,1008.27
2018-06-17T00:21:17.596Z,1008.34
2018-06-17T00:22:17.623Z,1008.37
2018-06-17T00:23:17.637Z,1008.34
2018-06-17T00:24:17.663Z,1008.34
2018-06-17T00:25:17.683Z,1008.34
2018-06-17T00:26:17.705Z,1008.35
2018-06-17T00:27:17.731Z,1008.32
2018-06-17T00:28:17.749Z,1008.32
2018-06-17T00:29:17.773Z,1008.35
2018-06-17T00:30:17.797Z,1008.37
2018-06-17T00:31:17.817Z,1008.33
2018-06-17T00:32:17.840Z,1008.37
2018-06-17T00:33:17.862Z,1008.35
2018-06-17T00:34:17.885Z,1008.35
2018-06-17T00:35:17.906Z,1008.35
2018-06-17T00:36:17.929Z,1008.35
2018-06-17T00:37:17.951Z,1008.35
2018-06-17T00:38:17.972Z,1008.35
2018-06-17T00:39:17.995Z,1008.33
2018-06-17T00:40:18.017Z,1008.39
2018-06-17T00:41:18.041Z,1008.34
2018-06-17T00:42:18.065Z,1008.37
2018-06-17T00:43:18.084Z,1008.40
2018-06-17T00:44:18.108Z,1008.36
2018-06-17T00:45:18.128Z,1008.38
2018-06-17T00:46:18.158Z,1008.37
2018-06-17T00:47:18.179Z,1008.34
2018-06-17T00:48:18.198Z,1008.39
2018-06-17T00:49:18.219Z,1008.38
2018-06-17T00:50:18.241Z,1008.41
2018-06-17T00:51:18.264Z,1008.42
2018-06-17T00:52:18.286Z,1008.39
2018-06-17T00:53:18.306Z,1008.38
2018-06-17T00:54:18.334Z,1008.40
2018-06-17T00:55:18.351Z,1008.36
2018-06-17T00:56:18.374Z,1008.36
2018-06-17T00:57:18.397Z,1008.40
2018-06-17T00:58:18.421Z,1008.32
2018-06-17T00:59:18.442Z,1008.36
2018-06-17T01:00:18.461Z,1008.32
2018-06-17T01:01:18.485Z,1008.34
2018-06-17T01:02:18.508Z,1008.35
2018-06-17T01:03:18.529Z,1008.35
2018-06-17T01:04:18.553Z,1008.33
2018-06-17T01:05:18.576Z,1008.35
2018-06-17T01:06:18.595Z,1008.36
2018-06-17T01:07:18.620Z,1008.32
2018-06-17T01:08:18.642Z,1008.36
2018-06-17T01:09:18.664Z,1008.33
2018-06-17T01:10:18.687Z,1008.39
2018-06-17T01:11:18.706Z,1008.37
2018-06-17T01:12:18.730Z,1008.41
2018-06-17T01:13:18.755Z,1008.40
2018-06-17T01:14:18.776Z,1008.46
2018-06-17T01:15:18.798Z,1008.44
2018-06-17T01:16:18.817Z,1008.46
2018-06-17T01:17:18.841Z,1008.41
2018-06-17T01:18:18.864Z,1008.44
2018-06-17T01:19:18.886Z,1008.43
2018-06-17T01:20:18.907Z,1008.47
2018-06-17T01:21:18.930Z,1008.39
2018-06-17T01:22:18.953Z,1008.40
2018-06-17T01:23:18.975Z,1008.39
2018-06-17T01:24:18.993Z,1008.38
2018-06-17T01:25:19.018Z,1008.37
2018-06-17T01:26:19.038Z,1008.43
2018-06-17T01:27:19.063Z,1008.41
2018-06-17T01:28:19.082Z,1008.42
2018-06-17T01:29:19.103Z,1008.44
2018-06-17T01:30:19.128Z,1008.46
2018-06-17T01:31:19.151Z,1008.45
2018-06-17T01:32:19.174Z,1008.46
2018-06-17T01:33:19.194Z,1008.47
2018-06-17T01:34:19.216Z,1008.50
2018-06-17T01:35:19.236Z,1008.52
2018-06-17T01:36:19.258Z,1008.49
2018-06-17T01:37:19.282Z,1008.43
2018-06-17T01:38:19.306Z,1008.44
2018-06-17T01:39:19.326Z,1008.48
2018-06-17T01:40:19.346Z,1008.44
2018-06-17T01:41:19.367Z,1008.43
2018-06-17T01:42:19.397Z,1008.46
2018-06-17T01:43:19.412Z,1008.43
2018-06-17T01:44:19.434Z,1008.43
2018-06-17T01:45:19.461Z,1008.44
2018-06-17T01:46:19.481Z,1008.41
2018-06-17T01:47:19.500Z,1008.43
2018-06-17T01:48:19.525Z,1008.43
2018-06-17T01:49:19.547Z,1008.41
2018-06-17T01:50:19.570Z,1008.45
2018-06-17T01:51:19.592Z,1008.44
2018-06-17T01:52:19.613Z,1008.44
2018-06-17T01:53:19.632Z,1008.50
2018-06-17T01:54:19.656Z,1008.50
2018-06-17T01:55:19.682Z,1008.51
2018-06-17T01:56:19.697Z,1008.50
2018-06-17T01:57:19.721Z,1008.50
2018-06-17T01:58:19.743Z,1008.49
2018-06-17T01:59:19.764Z,1008.50
2018-06-17T02:00:19.788Z,1008.55
2018-06-17T02:01:19.806Z,1008.51
2018-06-17T02:02:19.830Z,1008.52
2018-06-17T02:03:19.853Z,1008.59
2018-06-17T02:04:19.874Z,1008.56
2018-06-17T02:05:19.894Z,1008.55
2018-06-17T02:06:19.918Z,1008.54
2018-06-17T02:07:19.940Z,1008.50
2018-06-17T02:08:19.958Z,1008.53
2018-06-17T02:09:19.983Z,1008.53
2018-06-17T02:10:20.004Z,1008.47
2018-06-17T02:11:20.024Z,1008.49
2018-06-17T02:12:20.048Z,1008.45
2018-06-17T02:13:20.070Z,1008.44
2018-06-17T02:14:20.093Z,1008.42
2018-06-17T02:15:20.113Z,1008.40
2018-06-17T02:16:20.132Z,1008.40
2018-06-17T02:17:20.157Z,1008.42
2018-06-17T02:18:20.176Z,1008.43
2018-06-17T02:19:20.201Z,1008.39
2018-06-17T02:20:20.219Z,1008.41
2018-06-17T02:21:20.247Z,1008.45
2018-06-17T02:22:20.265Z,1008.44
2018-06-17T02:23:20.285Z,1008.42
2018-06-17T02:24:20.307Z,1008.41
2018-06-17T02:25:20.328Z,1008.44
2018-06-17T02:26:20.352Z,1008.45
2018-06-17T02:27:20.373Z,1008.44
2018-06-17T02:28:20.392Z,1008.45
2018-06-17T02:29:20.414Z,1008.49
2018-06-17T02:30:20.435Z,1008.49
2018-06-17T02:31:20.461Z,1008.51
2018-06-17T02:32:20.481Z,1008.50
2018-06-17T02:33:20.499Z,1008.50
2018-06-17T02:34:20.525Z,1008.50
2018-06-17T02:35:20.544Z,1008.50
2018-06-17T02:36:20.565Z,1008.49
2018-06-17T02:37:20.589Z,1008.55
2018-06-17T02:38:20.608Z,1008.50
2018-06-17T02:39:20.632Z,1008.54
2018-06-17T02:40:20.651Z,1008.57
2018-06-17T02:41:20.676Z,1008.54
2018-06-17T02:42:20.698Z,1008.59
2018-06-17T02:43:20.716Z,1008.57
2018-06-17T02:44:20.736Z,1008.57
2018-06-17T02:45:20.758Z,1008.53
2018-06-17T02:46:20.777Z,1008.56
2018-06-17T02:47:20.798Z,1008.57
2018-06-17T02:48:20.821Z,1008.57
2018-06-17T02:49:20.843Z,1008.60
2018-06-17T02:50:20.862Z,1008.57
2018-06-17T02:51:20.879Z,1008.51
2018-06-17T02:52:20.900Z,1008.58
2018-06-17T02:53:20.925Z,1008.56
2018-06-17T02:54:20.944Z,1008.58
2018-06-17T02:55:20.962Z,1008.61
2018-06-17T02:56:20.983Z,1008.50
2018-06-17T02:57:21.002Z,1008.51
2018-06-17T02:58:21.026Z,1008.57
2018-06-17T02:59:21.046Z,1008.58
2018-06-17T03:00:21.066Z,1008.56
2018-06-17T03:01:21.085Z,1008.56
2018-06-17T03:02:21.106Z,1008.57
2018-06-17T03:03:21.128Z,1008.56
2018-06-17T03:04:21.144Z,1008.60
2018-06-17T03:05:21.166Z,1008.57
2018-06-17T03:06:21.187Z,1008.54
2018-06-17T03:07:21.211Z,1008.54
2018-06-17T03:08:21.227Z,1008.54
2018-06-17T03:09:21.245Z,1008.51
2018-06-17T03:10:21.265Z,1008.49
2018-06-17T03:11:21.287Z,1008.49
2018-06-17T03:12:21.310Z,1008.48
2018-06-17T03:13:21.329Z,1008.51
2018-06-17T03:14:21.354Z,1008.55
2018-06-17T03:15:21.366Z,1008.56
2018-06-17T03:16:21.386Z,1008.58
2018-06-17T03:17:21.409Z,1008.63
2018-06-17T03:18:21.427Z,1008.65
2018-06-17T03:19:21.450Z,1008.60
2018-06-17T03:20:21.466Z,1008.63
2018-06-17T03:21:21.487Z,1008.63
2018-06-17T03:22:21.510Z,1008.66
2018-06-17T03:23:21.527Z,1008.65
2018-06-17T03:24:21.548Z,1008.65
2018-06-17T03:25:21.567Z,1008.67
2018-06-17T03:26:21.593Z,1008.63
2018-06-17T03:27:21.608Z,1008.66
2018-06-17T03:28:21.628Z,1008.69
2018-06-17T03:29:21.649Z,1008.64
2018-06-17T03:30:21.672Z,1008.66
2018-06-17T03:31:21.692Z,1008.68
2018-06-17T03:32:21.711Z,1008.62
2018-06-17T03:33:21.732Z,1008.61
2018-06-17T03:34:21.754Z,1008.65
2018-06-17T03:35:21.770Z,1008.60
2018-06-17T03:36:21.792Z,1008.63
2018-06-17T03:37:21.814Z,1008.62
2018-06-17T03:38:21.832Z,1008.62
2018-06-17T03:39:21.856Z,1008.64
2018-06-17T03:40:21.871Z,1008.64
2018-06-17T03:41:21.892Z,1008.59
2018-06-17T03:42:21.910Z,1008.59
2018-06-17T03:43:21.931Z,1008.65
2018-06-17T03:44:21.952Z,1008.65
2018-06-17T03:45:21.970Z,1008.69
2018-06-17T03:46:21.990Z,1008.69
2018-06-17T03:47:22.011Z,1008.65
2018-06-17T03:48:22.031Z,1008.65
2018-06-17T03:49:22.050Z,1008.65
2018-06-17T03:50:22.072Z,1008.65
2018-06-17T03:51:22.094Z,1008.68
2018-06-17T03:52:22.110Z,1008.67
2018-06-17T03:53:22.133Z,1008.64
2018-06-17T03:54:22.153Z,1008.66
2018-06-17T03:55:22.175Z,1008.62
2018-06-17T03:56:22.195Z,1008.64
2018-06-17T03:57:22.214Z,1008.58
2018-06-17T03:58:22.233Z,1008.61
2018-06-17T03:59:22.254Z,1008.60
2018-06-17T04:00:22.273Z,1008.66
2018-06-17T04:01:22.291Z,1008.64
2018-06-17T04:02:22.315Z,1008.71
2018-06-17T04:03:22.334Z,1008.70
2018-06-17T04:04:22.353Z,1008.73
2018-06-17T04:05:22.375Z,1008.71
2018-06-17T04:06:22.394Z,1008.73
2018-06-17T04:07:22.413Z,1008.73
2018-06-17T04:08:22.434Z,1008.73
2018-06-17T04:09:22.455Z,1008.73
2018-06-17T04:10:22.512Z,1008.76
2018-06-17T04:11:22.493Z,1008.78
2018-06-17T04:12:22.514Z,1008.75
2018-06-17T04:13:22.536Z,1008.73
2018-06-17T04:14:22.556Z,1008.70
2018-06-17T04:15:22.574Z,1008.73
2018-06-17T04:16:22.595Z,1008.75
2018-06-17T04:17:22.618Z,1008.73
2018-06-17T04:18:22.638Z,1008.71
2018-06-17T04:19:22.657Z,1008.74
2018-06-17T04:20:22.678Z,1008.74
2018-06-17T04:21:22.699Z,1008.75
2018-06-17T04:22:22.718Z,1008.72
2018-06-17T04:23:22.736Z,1008.73
2018-06-17T04:24:22.759Z,1008.71
2018-06-17T04:25:22.834Z,1008.72
2018-06-17T04:26:22.800Z,1008.71
2018-06-17T04:27:22.820Z,1008.68
2018-06-17T04:28:22.840Z,1008.69
2018-06-17T04:29:22.858Z,1008.72
2018-06-17T04:30:22.878Z,1008.72
2018-06-17T04:31:22.898Z,1008.71
2018-06-17T04:32:22.921Z,1008.66
2018-06-17T04:33:22.939Z,1008.70
2018-06-17T04:34:22.961Z,1008.72
2018-06-17T04:35:22.980Z,1008.70
2018-06-17T04:36:23.002Z,1008.67
2018-06-17T04:37:23.023Z,1008.68
2018-06-17T04:38:23.042Z,1008.69
2018-06-17T04:39:23.065Z,1008.67
2018-06-17T04:40:23.082Z,1008.71
2018-06-17T04:41:23.103Z,1008.73
2018-06-17T04:42:23.128Z,1008.77
2018-06-17T04:43:23.145Z,1008.80
2018-06-17T04:44:23.166Z,1008.81
2018-06-17T04:45:23.184Z,1008.81
2018-06-17T04:46:23.207Z,1008.74
2018-06-17T04:47:23.228Z,1008.72
2018-06-17T04:48:23.256Z,1008.69
2018-06-17T04:49:23.268Z,1008.67
2018-06-17T04:50:23.288Z,1008.71
2018-06-17T04:51:23.308Z,1008.70
2018-06-17T04:52:23.326Z,1008.75
2018-06-17T04:53:23.346Z,1008.76
2018-06-17T04:54:23.369Z,1008.74
2018-06-17T04:55:23.393Z,1008.74
2018-06-17T04:56:23.408Z,1008.76
2018-06-17T04:57:23.428Z,1008.81
2018-06-17T04:58:23.449Z,1008.89
2018-06-17T04:59:23.471Z,1008.92
2018-06-17T05:00:23.493Z,1008.85
2018-06-17T05:01:23.510Z,1008.88
2018-06-17T05:02:23.535Z,1008.84
2018-06-17T05:03:23.554Z,1008.84
2018-06-17T05:04:23.574Z,1008.85
2018-06-17T05:05:23.594Z,1008.86
2018-06-17T05:06:23.614Z,1008.83
2018-06-17T05:07:23.634Z,1008.80
2018-06-17T05:08:23.653Z,1008.81
2018-06-17T05:09:23.678Z,1008.87
2018-06-17T05:10:23.694Z,1008.90
2018-06-17T05:11:23.719Z,1008.84
2018-06-17T05:12:23.738Z,1008.81
2018-06-17T05:13:23.759Z,1008.76
2018-06-17T05:14:23.778Z,1008.80
2018-06-17T05:15:23.798Z,1008.76
2018-06-17T05:16:23.820Z,1008.83
2018-06-17T05:17:23.840Z,1008.79
2018-06-17T05:18:23.860Z,1008.82
2018-06-17T05:19:23.884Z,1008.84
2018-06-17T05:20:23.901Z,1008.86
2018-06-17T05:21:23.922Z,1008.85
2018-06-17T05:22:23.946Z,1008.83
2018-06-17T05:23:23.966Z,1008.85
2018-06-17T05:24:23.986Z,1008.88
2018-06-17T05:25:24.009Z,1008.89
2018-06-17T05:26:24.028Z,1008.92
2018-06-17T05:27:24.049Z,1008.86
2018-06-17T05:28:24.069Z,1008.89
2018-06-17T05:29:24.093Z,1008.86
2018-06-17T05:30:24.117Z,1008.81
2018-06-17T05:31:24.138Z,1008.80
2018-06-17T05:32:24.157Z,1008.74
2018-06-17T05:33:24.177Z,1008.74
2018-06-17T05:34:24.198Z,1008.73
2018-06-17T05:35:24.222Z,1008.80
2018-06-17T05:36:24.243Z,1008.86
2018-06-17T05:37:24.264Z,1008.82
2018-06-17T05:38:24.284Z,1008.83
2018-06-17T05:39:24.305Z,1008.86
2018-06-17T05:40:24.329Z,1008.84
2018-06-17T05:41:24.347Z,1008.89
2018-06-17T05:42:24.373Z,1008.91
2018-06-17T05:43:24.395Z,1008.92
2018-06-17T05:44:24.416Z,1008.90
2018-06-17T05:45:24.434Z,1008.89
2018-06-17T05:46:24.459Z,1008.87
2018-06-17T05:47:24.481Z,1008.88
2018-06-17T05:48:24.502Z,1008.88
2018-06-17T05:49:24.523Z,1008.90
2018-06-17T05:50:24.546Z,1008.93
2018-06-17T05:51:24.566Z,1008.93
2018-06-17T05:52:24.590Z,1008.89
2018-06-17T05:53:24.612Z,1008.94
2018-06-17T05:54:24.635Z,1008.93
2018-06-17T05:55:24.656Z,1008.92
2018-06-17T05:56:24.678Z,1008.96
2018-06-17T05:57:24.698Z,1008.92
2018-06-17T05:58:24.721Z,1008.90
2018-06-17T05:59:24.744Z,1008.93
2018-06-17T06:00:24.765Z,1008.92
2018-06-17T06:01:24.791Z,1008.95
2018-06-17T06:02:24.813Z,1008.95
2018-06-17T06:03:24.837Z,1008.99
2018-06-17T06:04:24.855Z,1008.98
2018-06-17T06:05:24.878Z,1008.94
2018-06-17T06:06:24.903Z,1008.93
2018-06-17T06:07:24.923Z,1008.96
2018-06-17T06:08:24.945Z,1008.95
2018-06-17T06:09:24.968Z,1008.92
2018-06-17T06:10:25.060Z,1008.91
2018-06-17T06:11:25.017Z,1008.86
2018-06-17T06:12:25.037Z,1008.86
2018-06-17T06:13:25.062Z,1008.83
2018-06-17T06:14:25.082Z,1008.92
2018-06-17T06:15:25.108Z,1008.93
2018-06-17T06:16:25.128Z,1008.92
2018-06-17T06:17:25.153Z,1008.97
2018-06-17T06:18:25.176Z,1008.93
2018-06-17T06:19:25.197Z,1008.90
2018-06-17T06:20:25.226Z,1008.95
2018-06-17T06:21:25.246Z,1008.98
2018-06-17T06:22:25.269Z,1009.00
2018-06-17T06:23:25.293Z,1008.98
2018-06-17T06:24:25.316Z,1008.97
2018-06-17T06:25:25.339Z,1008.96
2018-06-17T06:26:25.359Z,1008.97
2018-06-17T06:27:25.385Z,1008.96
2018-06-17T06:28:25.405Z,1008.94
2018-06-17T06:29:25.432Z,1008.95
2018-06-17T06:30:25.453Z,1008.99
2018-06-17T06:31:25.479Z,1008.99
2018-06-17T06:32:25.503Z,1009.01
2018-06-17T06:33:25.527Z,1009.06
2018-06-17T06:34:25.550Z,1008.99
2018-06-17T06:35:25.575Z,1009.02
2018-06-17T06:36:25.642Z,1009.05
2018-06-17T06:37:25.622Z,1009.01
2018-06-17T06:38:25.642Z,1008.99
2018-06-17T06:39:25.669Z,1008.99
2018-06-17T06:40:25.693Z,1008.95
2018-06-17T06:41:25.713Z,1008.97
2018-06-17T06:42:25.737Z,1009.03
2018-06-17T06:43:25.765Z,1009.04
2018-06-17T06:44:25.787Z,1009.11
2018-06-17T06:45:25.809Z,1009.11
2018-06-17T06:46:25.836Z,1009.07
2018-06-17T06:47:25.861Z,1009.07
2018-06-17T06:48:25.884Z,1009.12
2018-06-17T06:49:25.911Z,1009.13
2018-06-17T06:50:25.942Z,1009.16
2018-06-17T06:51:25.956Z,1009.19
2018-06-17T06:52:25.980Z,1009.22
2018-06-17T06:53:26.005Z,1009.18
2018-06-17T06:54:26.029Z,1009.15
2018-06-17T06:55:26.060Z,1009.20
2018-06-17T06:56:26.079Z,1009.13
2018-06-17T06:57:26.128Z,1008.97
2018-06-17T06:58:26.131Z,1009.19
2018-06-17T06:59:26.157Z,1009.15
2018-06-17T07:00:26.180Z,1009.08
2018-06-17T07:01:26.206Z,1009.21
2018-06-17T07:02:26.232Z,1009.00
2018-06-17T07:03:26.256Z,1009.01
2018-06-17T07:04:26.281Z,1009.22
2018-06-17T07:05:26.306Z,1009.17
2018-06-17T07:06:26.331Z,1009.26
2018-06-17T07:07:26.355Z,1009.24
2018-06-17T07:08:26.382Z,1009.28
2018-06-17T07:09:26.407Z,1009.11
2018-06-17T07:10:26.432Z,1009.27
2018-06-17T07:11:26.455Z,1009.28
2018-06-17T07:12:26.482Z,1009.37
2018-06-17T07:13:26.505Z,1009.31
2018-06-17T07:14:26.533Z,1009.28
2018-06-17T07:15:26.558Z,1009.27
2018-06-17T07:16:26.580Z,1009.36
2018-06-17T07:17:26.607Z,1009.37
2018-06-17T07:18:26.632Z,1009.32
2018-06-17T07:19:26.658Z,1009.21
2018-06-17T07:20:26.685Z,1009.40
2018-06-17T07:21:26.713Z,1009.16
2018-06-17T07:22:26.734Z,1009.41
2018-06-17T07:23:26.760Z,1009.48
2018-06-17T07:24:26.788Z,1009.20
2018-06-17T07:25:26.810Z,1009.54
2018-06-17T07:26:26.839Z,1009.52
2018-06-17T07:27:26.863Z,1009.38
2018-06-17T07:28:26.891Z,1009.57
2018-06-17T07:29:26.913Z,1009.73
2018-06-17T07:30:26.939Z,1009.78
2018-06-17T07:31:26.966Z,1009.98
2018-06-17T07:32:26.990Z,1009.96
2018-06-17T07:33:27.018Z,1009.53
2018-06-17T07:34:27.043Z,1010.06
2018-06-17T07:35:27.069Z,1010.09
2018-06-17T07:36:27.095Z,1009.97
2018-06-17T07:37:27.118Z,1009.94
2018-06-17T07:38:27.147Z,1009.82
2018-06-17T07:39:27.172Z,1009.94
2018-06-17T07:40:27.194Z,1009.90
2018-06-17T07:41:27.225Z,1009.79
2018-06-17T07:42:27.249Z,1009.72
2018-06-17T07:43:27.275Z,1009.70
2018-06-17T07:44:27.297Z,1009.66
2018-06-17T07:45:27.322Z,1009.68
2018-06-17T07:46:27.351Z,1009.62
2018-06-17T07:47:27.377Z,1009.48
2018-06-17T07:48:27.400Z,1009.34
2018-06-17T07:49:27.450Z,1009.62
2018-06-17T07:50:27.452Z,1009.44
2018-06-17T07:51:27.476Z,1009.60
2018-06-17T07:52:27.501Z,1009.60
2018-06-17T07:53:27.529Z,1009.70
2018-06-17T07:54:27.556Z,1009.63
2018-06-17T07:55:27.581Z,1009.59
2018-06-17T07:56:27.607Z,1009.64
2018-06-17T07:57:27.632Z,1009.72
2018-06-17T07:58:27.657Z,1009.68
2018-06-17T07:59:27.683Z,1009.71
2018-06-17T08:00:27.707Z,1009.74
2018-06-17T08:01:27.735Z,1009.82
2018-06-17T08:02:27.760Z,1009.80
2018-06-17T08:03:27.785Z,1009.54
2018-06-17T08:04:27.810Z,1009.63
2018-06-17T08:05:27.838Z,1009.86
2018-06-17T08:06:27.864Z,1009.76
2018-06-17T08:07:27.891Z,1009.78
2018-06-17T08:08:27.919Z,1009.72
2018-06-17T08:09:27.943Z,1009.41
2018-06-17T08:10:27.968Z,1009.68
2018-06-17T08:11:27.993Z,1009.55
2018-06-17T08:12:28.027Z,1009.55
2018-06-17T08:13:28.046Z,1009.57
2018-06-17T08:14:28.075Z,1009.82
2018-06-17T08:15:28.101Z,1009.80
2018-06-17T08:16:28.122Z,1009.81
2018-06-17T08:17:28.155Z,1009.50
2018-06-17T08:18:28.178Z,1009.48
2018-06-17T08:19:28.204Z,1009.83
2018-06-17T08:20:28.226Z,1009.59
2018-06-17T08:21:28.256Z,1009.96
2018-06-17T08:22:28.278Z,1009.56
2018-06-17T08:23:28.310Z,1009.82
2018-06-17T08:24:28.332Z,1009.70
2018-06-17T08:25:28.356Z,1009.93
2018-06-17T08:26:28.385Z,1009.55
2018-06-17T08:27:28.409Z,1009.49
2018-06-17T08:28:28.437Z,1009.50
2018-06-17T08:29:28.463Z,1009.81
2018-06-17T08:30:28.510Z,1009.51
2018-06-17T08:31:28.516Z,1009.52
2018-06-17T08:32:28.541Z,1009.46
2018-06-17T08:33:28.564Z,1009.46
2018-06-17T08:34:28.592Z,1009.49
2018-06-17T08:35:28.621Z,1009.49
2018-06-17T08:36:28.642Z,1009.41
2018-06-17T08:37:28.669Z,1009.42
2018-06-17T08:38:28.696Z,1009.42
2018-06-17T08:39:28.722Z,1009.31
2018-06-17T08:40:28.743Z,1009.35
2018-06-17T08:41:28.772Z,1009.30
2018-06-17T08:42:28.798Z,1009.35
2018-06-17T08:43:28.824Z,1009.36
2018-06-17T08:44:28.845Z,1009.31
2018-06-17T08:45:28.875Z,1009.31
2018-06-17T08:46:28.898Z,1009.37
2018-06-17T08:47:28.922Z,1009.35
2018-06-17T08:48:28.948Z,1009.33
2018-06-17T08:49:28.970Z,1009.35
2018-06-17T08:50:28.997Z,1009.36
2018-06-17T08:51:29.021Z,1009.39
2018-06-17T08:52:29.047Z,1009.40
2018-06-17T08:53:29.069Z,1009.42
2018-06-17T08:54:29.092Z,1009.40
2018-06-17T08:55:29.119Z,1009.36
2018-06-17T08:56:29.143Z,1009.35
2018-06-17T08:57:29.164Z,1009.39
2018-06-17T08:58:29.191Z,1009.40
2018-06-17T08:59:29.213Z,1009.36
2018-06-17T09:00:29.236Z,1009.57
2018-06-17T09:01:29.263Z,1009.56
2018-06-17T09:02:29.283Z,1009.45
2018-06-17T09:03:29.308Z,1009.52
2018-06-17T09:04:29.334Z,1009.44
2018-06-17T09:05:29.356Z,1009.56
2018-06-17T09:06:29.378Z,1009.54
2018-06-17T09:07:29.404Z,1009.50
2018-06-17T09:08:29.425Z,1009.55
2018-06-17T09:09:29.448Z,1009.59
2018-06-17T09:10:29.472Z,1009.55
2018-06-17T09:11:29.496Z,1009.60
2018-06-17T09:12:29.565Z,1009.57
2018-06-17T09:13:29.544Z,1009.73
2018-06-17T09:14:29.569Z,1009.65
2018-06-17T09:15:29.590Z,1009.69
2018-06-17T09:16:29.615Z,1009.66
2018-06-17T09:17:29.636Z,1009.62
2018-06-17T09:18:29.659Z,1009.57
2018-06-17T09:19:29.685Z,1009.57
2018-06-17T09:20:29.709Z,1009.66
2018-06-17T09:21:29.732Z,1009.59
2018-06-17T09:22:29.756Z,1009.55
2018-06-17T09:23:29.779Z,1009.55
2018-06-17T09:24:29.799Z,1009.44
2018-06-17T09:25:29.826Z,1009.46
2018-06-17T09:26:29.849Z,1009.52
2018-06-17T09:27:29.969Z,1009.52
2018-06-17T09:28:29.892Z,1009.51
2018-06-17T09:29:29.916Z,1009.48
2018-06-17T09:30:29.940Z,1009.55
2018-06-17T09:31:29.963Z,1009.49
2018-06-17T09:32:29.991Z,1009.50
2018-06-17T09:33:30.012Z,1009.49
2018-06-17T09:34:30.036Z,1009.56
2018-06-17T09:35:30.059Z,1009.62
2018-06-17T09:36:30.087Z,1009.57
2018-06-17T09:37:30.105Z,1009.55
2018-06-17T09:38:30.131Z,1009.59
2018-06-17T09:39:30.148Z,1009.60
2018-06-17T09:40:30.176Z,1009.56
2018-06-17T09:41:30.197Z,1009.57
2018-06-17T09:42:30.221Z,1009.62
2018-06-17T09:43:30.253Z,1009.62
2018-06-17T09:44:30.298Z,1009.61
2018-06-17T09:45:30.287Z,1009.59
2018-06-17T09:46:30.314Z,1009.61
2018-06-17T09:47:30.335Z,1009.62
2018-06-17T09:48:30.363Z,1009.67
2018-06-17T09:49:30.383Z,1009.67
2018-06-17T09:50:30.403Z,1009.69
2018-06-17T09:51:30.427Z,1009.77
2018-06-17T09:52:30.451Z,1009.68
2018-06-17T09:53:30.477Z,1009.64
2018-06-17T09:54:30.500Z,1009.64
2018-06-17T09:55:30.523Z,1009.67
2018-06-17T09:56:30.545Z,1009.67
2018-06-17T09:57:30.567Z,1009.67
2018-06-17T09:58:30.605Z,1009.64
2018-06-17T09:59:30.614Z,1009.70
2018-06-17T10:00:30.640Z,1009.67
2018-06-17T10:01:30.721Z,1009.67
2018-06-17T10:02:30.683Z,1009.71
2018-06-17T10:03:30.707Z,1009.69
2018-06-17T10:04:30.732Z,1009.70
2018-06-17T10:05:30.766Z,1009.70
2018-06-17T10:06:30.780Z,1009.60
2018-06-17T10:07:30.800Z,1009.65
2018-06-17T10:08:30.829Z,1009.66
2018-06-17T10:09:30.847Z,1009.71
2018-06-17T10:10:30.871Z,1009.73
2018-06-17T10:11:30.894Z,1009.72
2018-06-17T10:12:30.918Z,1009.73
2018-06-17T10:13:30.938Z,1009.78
2018-06-17T10:14:30.962Z,1010.09
2018-06-17T10:15:30.987Z,1009.97
2018-06-17T10:16:31.012Z,1009.90
2018-06-17T10:17:31.032Z,1009.92
2018-06-17T10:18:31.057Z,1009.85
2018-06-17T10:19:31.081Z,1009.90
2018-06-17T10:20:31.105Z,1009.91
2018-06-17T10:21:31.127Z,1009.95
2018-06-17T10:22:31.152Z,1009.94
2018-06-17T10:23:31.175Z,1009.89
2018-06-17T10:24:31.197Z,1009.90
2018-06-17T10:25:31.221Z,1009.88
2018-06-17T10:26:31.241Z,1009.84
2018-06-17T10:27:31.268Z,1009.92
2018-06-17T10:28:31.290Z,1009.91
2018-06-17T10:29:31.325Z,1009.88
2018-06-17T10:30:31.336Z,1009.89
2018-06-17T10:31:31.359Z,1009.97
2018-06-17T10:32:31.382Z,1009.88
2018-06-17T10:33:31.407Z,1009.83
2018-06-17T10:34:31.433Z,1009.90
2018-06-17T10:35:31.453Z,1009.88
2018-06-17T10:36:31.479Z,1009.91
2018-06-17T10:37:31.502Z,1009.96
2018-06-17T10:38:31.522Z,1009.90
2018-06-17T10:39:31.550Z,1010.00
2018-06-17T10:40:31.568Z,1010.07
2018-06-17T10:41:31.606Z,1010.04
2018-06-17T10:42:31.618Z,1009.96
2018-06-17T10:43:31.689Z,1009.94
2018-06-17T10:44:31.667Z,1009.92
2018-06-17T10:45:31.696Z,1009.98
2018-06-17T10:46:31.713Z,1010.01
2018-06-17T10:47:31.739Z,1010.25
2018-06-17T10:48:31.759Z,1010.08
2018-06-17T10:49:31.785Z,1010.15
2018-06-17T10:50:31.858Z,1010.04
2018-06-17T10:51:31.828Z,1010.11
2018-06-17T10:52:31.851Z,1010.04
2018-06-17T10:53:31.883Z,1010.08
2018-06-17T10:54:31.898Z,1010.12
2018-06-17T10:55:31.958Z,1010.16
2018-06-17T10:56:31.948Z,1010.14
2018-06-17T10:57:31.968Z,1010.15
2018-06-17T10:58:31.994Z,1010.14
2018-06-17T10:59:32.018Z,1010.11
2018-06-17T11:00:32.042Z,1010.17
2018-06-17T11:01:32.065Z,1010.12
2018-06-17T11:02:32.088Z,1010.17
2018-06-17T11:03:32.114Z,1010.16
2018-06-17T11:04:32.136Z,1010.29
2018-06-17T11:05:32.233Z,1010.17
2018-06-17T11:06:32.383Z,1010.15
2018-06-17T11:07:32.204Z,1010.22
2018-06-17T11:08:32.228Z,1010.21
2018-06-17T11:09:32.252Z,1010.24
2018-06-17T11:10:32.275Z,1010.21
2018-06-17T11:11:32.301Z,1010.19
2018-06-17T11:12:32.326Z,1010.24
2018-06-17T11:13:32.348Z,1010.19
2018-06-17T11:14:32.368Z,1010.23
2018-06-17T11:15:32.392Z,1010.24
2018-06-17T11:16:32.417Z,1010.18
2018-06-17T11:17:32.439Z,1010.17
2018-06-17T11:18:32.464Z,1010.10
2018-06-17T11:19:32.490Z,1010.13
2018-06-17T11:20:32.510Z,1010.08
2018-06-17T11:21:32.533Z,1010.09
2018-06-17T11:22:32.559Z,1010.13
2018-06-17T11:23:32.584Z,1010.16
2018-06-17T11:24:32.605Z,1010.18
2018-06-17T11:25:32.627Z,1010.15
2018-06-17T11:26:32.670Z,1010.18
2018-06-17T11:27:32.674Z,1010.18
2018-06-17T11:28:32.698Z,1010.21
2018-06-17T11:29:32.724Z,1010.24
2018-06-17T11:30:32.744Z,1010.26
2018-06-17T11:31:32.776Z,1010.27
2018-06-17T11:32:32.790Z,1010.30
2018-06-17T11:33:32.819Z,1010.34
2018-06-17T11:34:32.841Z,1010.29
2018-06-17T11:35:32.863Z,1010.31
2018-06-17T11:36:32.887Z,1010.30
2018-06-17T11:37:32.913Z,1010.30
2018-06-17T11:38:32.931Z,1010.32
2018-06-17T11:39:32.956Z,1010.39
2018-06-17T11:40:32.980Z,1010.37
2018-06-17T11:41:33.004Z,1010.31
2018-06-17T11:42:33.026Z,1010.26
2018-06-17T11:43:33.054Z,1010.28
2018-06-17T11:44:33.078Z,1010.27
2018-06-17T11:45:33.097Z,1010.28
2018-06-17T11:46:33.120Z,1010.25
2018-06-17T11:47:33.146Z,1010.30
2018-06-17T11:48:33.166Z,1010.30
2018-06-17T11:49:33.193Z,1010.35
2018-06-17T11:50:33.217Z,1010.36
2018-06-17T11:51:33.238Z,1010.31
2018-06-17T11:52:33.260Z,1010.32
2018-06-17T11:53:33.284Z,1010.34
2018-06-17T11:54:33.310Z,1010.47
2018-06-17T11:55:33.333Z,1010.45
2018-06-17T11:56:33.355Z,1010.50
2018-06-17T11:57:33.378Z,1010.47
2018-06-17T11:58:33.403Z,1010.52
2018-06-17T11:59:33.427Z,1010.49
2018-06-17T12:00:33.449Z,1010.53
2018-06-17T12:01:33.469Z,1010.52
2018-06-17T12:02:33.498Z,1010.51
2018-06-17T12:03:33.522Z,1010.56
2018-06-17T12:04:33.543Z,1010.61
2018-06-17T12:05:33.562Z,1010.61